East Acres, Tennessee
Current Conditions -  °F | °C
As of 4:15 AM on Thursday 29 Jan 2015 (Local Time) from KNQA Reporting Station
Scattered Clouds Scattered Clouds  
Wind Chill: 61°   Ceiling: Unl
Heat Index: 61°   Visibility: 10mi
Dew Point: 41°   Wind: 13mph
Humidity: 48%   Direction: 200°SSW
Pressure: 30"   Gusts: NA
Location:  35.3343°N, 89.9316°W
Report Text: KNQA 291015Z AUTO 20011KT 10SM SCT110 16/05 A3000 RMK
Loading
Personal Weather Stations






























Interactive Weather Map New forecast layout! Learn more

10-Day Weather Forecast

Advertisements
Track Severe Weather on mobile